Time;durP1;ratioP1;P1;durP2;ratioP2;P2;SDS_P1;SDS_P2;PMS_P1;PMS_P2;Temp;Humidity;BMP_temperature;BMP_pressure;BME280_temperature;BME280_humidity;BME280_pressure;Samples;Min_cycle;Max_cycle;Signal;HPM_P1;HPM_P2
2022/09/26 00:01:08;;;;;;;24.63;14.02;;;;;;;11.64;83.58;97834.41;7389485;19;20015;-74
2022/09/26 00:03:36;;;;;;;21.52;13.50;;;;;;;11.67;83.65;97841.19;7387542;19;20038;-74
2022/09/26 00:06:04;;;;;;;22.00;14.00;;;;;;;11.76;83.81;97842.78;7387814;19;20022;-74
2022/09/26 00:08:32;;;;;;;21.45;12.98;;;;;;;11.69;83.30;97847.13;7388472;19;20018;-74
2022/09/26 00:11:00;;;;;;;23.83;13.50;;;;;;;11.61;83.52;97840.03;7392377;19;20022;-74
2022/09/26 00:13:28;;;;;;;21.20;13.15;;;;;;;11.57;83.20;97831.63;7389211;19;20019;-74
2022/09/26 00:15:56;;;;;;;23.27;13.52;;;;;;;11.50;82.56;97835.16;7390526;19;20034;-75
2022/09/26 00:18:23;;;;;;;20.20;12.70;;;;;;;11.43;82.89;97833.22;7386908;19;20025;-74
2022/09/26 00:20:50;;;;;;;23.92;14.07;;;;;;;11.39;83.09;97826.59;7383022;19;20025;-74
2022/09/26 00:23:17;;;;;;;23.73;13.32;;;;;;;11.45;83.51;97824.25;7389498;19;20505;-74
2022/09/26 00:25:48;;;;;;;19.95;12.98;;;;;;;11.51;83.26;97818.28;7389656;19;20015;-74
2022/09/26 00:28:16;;;;;;;22.55;12.50;;;;;;;11.56;83.22;97823.88;7387507;19;20051;-75
2022/09/26 00:30:43;;;;;;;20.85;13.27;;;;;;;11.59;83.34;97831.47;7387250;19;20407;-74
2022/09/26 00:33:11;;;;;;;18.67;12.23;;;;;;;11.58;83.92;97827.16;7392173;19;20014;-74
2022/09/26 00:35:37;;;;;;;18.35;11.65;;;;;;;11.58;83.78;97827.16;7385154;19;20584;-74
2022/09/26 00:38:05;;;;;;;21.33;12.98;;;;;;;11.54;83.81;97829.34;7387065;19;20034;-75
2022/09/26 00:40:32;;;;;;;18.05;13.40;;;;;;;11.55;83.79;97828.31;7388102;19;20010;-75
2022/09/26 00:42:58;;;;;;;20.83;13.40;;;;;;;11.57;83.82;97826.34;7387709;19;20014;-75
2022/09/26 00:45:29;;;;;;;20.17;12.18;;;;;;;11.57;84.24;97830.81;7389120;19;20010;-75
2022/09/26 00:48:05;;;;;;;18.95;13.02;;;;;;;11.63;84.10;97824.81;7388702;19;20346;-75
2022/09/26 00:50:37;;;;;;;21.33;13.52;;;;;;;11.55;83.91;97827.50;7384797;19;20014;-75
2022/09/26 00:53:09;;;;;;;22.55;12.93;;;;;;;11.46;83.72;97824.09;7380310;19;20018;-74
2022/09/26 00:55:38;;;;;;;25.60;13.93;;;;;;;11.38;83.78;97819.66;7384972;19;20015;-74
2022/09/26 00:58:13;;;;;;;22.63;12.65;;;;;;;11.35;83.81;97817.38;7387283;19;20494;-74
2022/09/26 01:00:41;;;;;;;34.88;13.68;;;;;;;11.29;83.37;97810.09;7385796;19;20029;-74
2022/09/26 01:03:08;;;;;;;24.17;13.68;;;;;;;11.28;83.12;97815.59;7387142;19;20019;-74
2022/09/26 01:05:35;;;;;;;25.15;14.50;;;;;;;11.23;83.17;97812.63;7388164;19;20375;-74
2022/09/26 01:08:03;;;;;;;22.48;13.52;;;;;;;11.21;83.34;97812.78;7385046;19;20748;-75
2022/09/26 01:10:30;;;;;;;25.42;14.48;;;;;;;11.14;83.76;97809.22;7382274;19;20014;-75
2022/09/26 01:13:00;;;;;;;20.48;13.77;;;;;;;11.11;84.05;97804.25;7385057;19;20510;-75
2022/09/26 01:15:27;;;;;;;25.17;14.18;;;;;;;11.07;84.05;97803.78;7389342;19;20022;-75
2022/09/26 01:17:54;;;;;;;23.40;14.45;;;;;;;11.08;83.90;97809.88;7387427;19;20007;-75
2022/09/26 01:20:25;;;;;;;25.40;14.10;;;;;;;11.07;84.01;97803.78;7383361;19;20018;-75
2022/09/26 01:23:29;;;;;;;27.73;14.88;;;;;;;11.04;84.09;97805.94;7388834;19;20050;-75
2022/09/26 01:26:23;;;;;;;23.02;13.55;;;;;;;11.00;83.95;97810.75;7383883;19;20022;-74
2022/09/26 01:29:19;;;;;;;24.98;13.85;;;;;;;10.96;83.69;97807.63;7383903;19;20029;-75
2022/09/26 01:34:58;;;;;;;22.45;11.90;;;;;;;10.75;83.33;97810.03;7388456;19;20025;-75
2022/09/26 01:37:38;;;;;;;19.58;12.90;;;;;;;10.80;83.71;97806.88;7384680;19;20031;-75
2022/09/26 01:40:09;;;;;;;25.58;13.52;;;;;;;10.91;84.16;97801.19;7381295;19;20493;-74
2022/09/26 01:42:58;;;;;;;20.45;12.27;;;;;;;10.98;83.76;97810.13;7381735;19;20015;-75
2022/09/26 01:45:32;;;;;;;24.40;13.18;;;;;;;11.03;83.64;97809.56;7384012;19;20485;-75
2022/09/26 01:48:04;;;;;;;21.55;13.00;;;;;;;11.16;84.32;97815.13;7385695;19;20010;-75
2022/09/26 01:50:42;;;;;;;19.15;13.15;;;;;;;11.31;84.27;97808.13;7383625;19;20134;-74
2022/09/26 01:53:23;;;;;;;19.35;12.50;;;;;;;11.42;84.41;97807.72;7386722;19;20136;-74
2022/09/26 01:55:58;;;;;;;17.23;12.60;;;;;;;11.53;84.16;97814.47;7384834;19;20393;-74
2022/09/26 01:58:38;;;;;;;19.23;12.57;;;;;;;11.49;83.92;97814.97;7381917;19;20014;-75
2022/09/26 02:01:09;;;;;;;21.70;12.15;;;;;;;11.56;83.61;97811.44;7381407;19;20022;-75
2022/09/26 02:03:41;;;;;;;20.70;11.13;;;;;;;11.55;83.58;97804.47;7387076;19;20030;-74
2022/09/26 02:06:11;;;;;;;17.35;11.27;;;;;;;11.61;83.22;97810.91;7387800;19;20015;-74
2022/09/26 02:08:42;;;;;;;18.67;12.02;;;;;;;11.52;83.58;97812.78;7382884;19;20533;-74
2022/09/26 02:11:14;;;;;;;17.58;11.80;;;;;;;11.63;83.26;97809.72;7384578;19;20011;-75
2022/09/26 02:13:54;;;;;;;15.88;11.40;;;;;;;11.68;83.50;97803.09;7386023;19;20033;-75
2022/09/26 02:16:30;;;;;;;19.98;12.32;;;;;;;11.59;83.42;97797.03;7381485;19;20006;-75
2022/09/26 02:19:07;;;;;;;19.50;11.68;;;;;;;11.58;83.13;97803.31;7379898;19;20082;-75
2022/09/26 02:21:34;;;;;;;17.65;11.27;;;;;;;11.58;83.25;97800.66;7387049;19;20011;-75
2022/09/26 02:24:01;;;;;;;17.20;12.35;;;;;;;11.50;83.24;97792.78;7386338;19;20600;-75
2022/09/26 02:26:28;;;;;;;21.52;11.25;;;;;;;11.52;82.99;97793.44;7384788;19;20014;-75
2022/09/26 02:28:58;;;;;;;19.13;11.57;;;;;;;11.48;82.93;97789.47;7383253;19;20030;-75
2022/09/26 02:31:29;;;;;;;20.25;11.45;;;;;;;11.43;82.56;97788.19;7384941;19;20022;-75
2022/09/26 02:33:56;;;;;;;20.50;12.05;;;;;;;11.36;82.83;97789.88;7380429;19;20010;-75
2022/09/26 02:36:25;;;;;;;17.52;11.90;;;;;;;11.24;82.93;97785.97;7384558;19;20030;-75
2022/09/26 02:38:52;;;;;;;18.00;11.57;;;;;;;11.20;82.91;97782.84;7388124;19;20023;-74
2022/09/26 02:41:49;;;;;;;19.20;11.27;;;;;;;11.11;82.54;97783.06;7384995;19;20048;-74
2022/09/26 02:44:40;;;;;;;16.88;11.70;;;;;;;11.04;82.98;97777.66;7385093;19;20028;-74
2022/09/26 02:47:27;;;;;;;20.27;11.45;;;;;;;11.04;82.64;97795.38;7383780;19;20021;-75
2022/09/26 02:50:00;;;;;;;17.50;11.77;;;;;;;11.10;82.79;97778.78;7379386;19;20021;-74
2022/09/26 02:52:48;;;;;;;15.48;11.95;;;;;;;11.09;83.58;97774.50;7384087;19;21065;-74
2022/09/26 02:55:26;;;;;;;14.98;9.07;;;;;;;11.20;83.36;97776.75;7382513;19;20047;-74
2022/09/26 02:58:11;;;;;;;19.35;12.60;;;;;;;11.25;83.88;97773.56;7379888;19;20046;-75
2022/09/26 03:00:47;;;;;;;17.08;12.43;;;;;;;11.37;83.30;97767.72;7380870;19;20030;-74
2022/09/26 03:03:32;;;;;;;22.08;12.82;;;;;;;11.32;83.43;97764.75;7381445;19;20037;-75
2022/09/26 03:06:02;;;;;;;17.05;13.13;;;;;;;11.31;83.54;97759.63;7382160;19;20010;-75
2022/09/26 03:08:33;;;;;;;20.08;12.50;;;;;;;11.31;83.36;97759.63;7380633;19;20021;-75
2022/09/26 03:11:04;;;;;;;23.58;13.68;;;;;;;11.25;83.63;97755.84;7385045;19;20019;-75
2022/09/26 03:13:36;;;;;;;21.55;13.48;;;;;;;11.26;83.35;97749.56;7382076;19;20013;-75
2022/09/26 03:16:05;;;;;;;24.95;13.13;;;;;;;11.19;83.22;97741.50;7383394;19;20014;-75
2022/09/26 03:18:40;;;;;;;15.82;11.45;;;;;;;11.21;82.81;97736.84;7389757;19;20026;-75
2022/09/26 03:21:08;;;;;;;17.45;11.52;;;;;;;11.14;82.89;97738.56;7390433;19;20021;-75
2022/09/26 03:23:36;;;;;;;17.90;12.43;;;;;;;11.12;82.61;97734.44;7388742;19;20098;-75
2022/09/26 03:26:11;;;;;;;14.27;10.38;;;;;;;11.09;82.48;97729.50;7390163;19;22467;-75
2022/09/26 03:28:49;;;;;;;18.50;12.18;;;;;;;10.92;83.01;97737.50;7388736;19;20050;-75
2022/09/26 03:31:16;;;;;;;17.67;12.00;;;;;;;10.96;82.96;97728.22;7392323;19;20028;-75
2022/09/26 03:33:51;;;;;;;17.10;11.10;;;;;;;10.95;82.78;97736.31;7392872;19;20019;-75
2022/09/26 03:36:18;;;;;;;18.48;11.23;;;;;;;10.88;82.77;97720.34;7390437;19;20014;-76
2022/09/26 03:38:44;;;;;;;15.73;10.65;;;;;;;10.88;82.51;97722.97;7390596;19;20608;-75
2022/09/26 03:41:31;;;;;;;17.55;12.20;;;;;;;10.87;82.43;97723.97;7384919;19;20051;-75
2022/09/26 03:44:06;;;;;;;15.20;10.68;;;;;;;10.86;82.57;97721.50;7389867;19;20024;-75
2022/09/26 03:46:52;;;;;;;17.08;11.50;;;;;;;10.83;82.74;97712.09;7389958;19;20015;-75
2022/09/26 03:49:20;;;;;;;17.92;11.70;;;;;;;10.83;82.88;97709.44;7388303;19;20015;-74
2022/09/26 03:51:46;;;;;;;19.52;10.80;;;;;;;10.80;83.04;97712.44;7389867;19;20014;-75
2022/09/26 03:54:13;;;;;;;17.95;11.57;;;;;;;10.86;82.95;97706.44;7391820;19;20021;-74
2022/09/26 03:56:40;;;;;;;18.08;11.68;;;;;;;10.91;82.57;97698.81;7384789;19;20018;-75
2022/09/26 03:59:07;;;;;;;15.73;10.35;;;;;;;10.89;82.83;97694.69;7386128;19;20019;-75
2022/09/26 04:01:35;;;;;;;14.98;10.02;;;;;;;10.95;82.70;97697.47;7390536;19;20022;-75
2022/09/26 04:04:02;;;;;;;15.50;10.32;;;;;;;11.00;82.54;97689.00;7390692;19;20010;-74
2022/09/26 04:06:28;;;;;;;16.40;10.70;;;;;;;10.96;82.53;97691.19;7389846;19;20022;-74
2022/09/26 04:08:57;;;;;;;18.02;11.10;;;;;;;10.85;83.29;97688.09;7389592;19;20014;-74
2022/09/26 04:11:24;;;;;;;15.68;10.63;;;;;;;10.87;82.91;97683.44;7387826;19;20011;-75
2022/09/26 04:13:51;;;;;;;19.40;11.10;;;;;;;10.81;82.74;97686.81;7385584;19;20014;-75
2022/09/26 04:16:22;;;;;;;13.88;10.80;;;;;;;10.70;83.29;97691.47;7382229;19;20014;-74
2022/09/26 04:19:11;;;;;;;18.63;11.02;;;;;;;10.66;82.89;97684.88;7388994;19;20794;-75
2022/09/26 04:21:39;;;;;;;15.70;10.75;;;;;;;10.59;82.53;97675.19;7388205;19;20014;-75
2022/09/26 04:24:13;;;;;;;21.75;11.35;;;;;;;10.41;82.55;97676.25;7387307;19;20062;-75
2022/09/26 04:26:41;;;;;;;20.60;11.23;;;;;;;10.23;82.76;97670.34;7388807;19;20799;-74
2022/09/26 04:29:09;;;;;;;18.20;11.55;;;;;;;10.20;82.51;97668.84;7381235;19;20011;-74
2022/09/26 04:31:50;;;;;;;22.40;11.33;;;;;;;10.12;82.49;97666.25;7383611;19;20018;-75
2022/09/26 04:34:23;;;;;;;15.50;10.90;;;;;;;10.14;82.26;97664.25;7386332;19;20014;-75
2022/09/26 04:36:53;;;;;;;20.07;11.33;;;;;;;10.04;82.50;97658.34;7387950;19;20022;-74
2022/09/26 04:39:19;;;;;;;13.48;10.70;;;;;;;10.02;82.45;97655.03;7388444;19;20439;-74
2022/09/26 04:41:47;;;;;;;15.95;10.25;;;;;;;10.05;82.29;97649.41;7388444;19;20022;-75
2022/09/26 04:44:14;;;;;;;14.23;10.50;;;;;;;10.05;82.42;97650.22;7384946;19;20046;-74
2022/09/26 04:46:40;;;;;;;16.35;9.98;;;;;;;10.11;82.75;97652.22;7379472;19;20011;-74
2022/09/26 04:49:08;;;;;;;15.38;10.25;;;;;;;10.11;82.79;97639.00;7387019;19;20034;-74
2022/09/26 04:51:36;;;;;;;12.23;9.98;;;;;;;10.18;82.63;97648.88;7390031;19;20030;-75
2022/09/26 04:54:03;;;;;;;18.77;10.07;;;;;;;10.17;82.54;97645.41;7387723;19;20033;-74
2022/09/26 04:56:35;;;;;;;16.35;10.65;;;;;;;10.14;82.30;97642.28;7385018;19;20022;-74
2022/09/26 04:59:04;;;;;;;13.10;9.85;;;;;;;10.09;82.26;97635.69;7387720;19;20019;-74
2022/09/26 05:01:52;;;;;;;15.52;9.50;;;;;;;10.01;82.46;97633.09;7386625;19;20018;-74
2022/09/26 05:04:25;;;;;;;16.63;9.45;;;;;;;9.98;82.44;97638.72;7384390;19;20498;-74
2022/09/26 05:06:56;;;;;;;16.85;9.55;;;;;;;9.97;82.27;97634.41;7387378;19;20505;-74
2022/09/26 05:09:27;;;;;;;11.07;9.52;;;;;;;9.92;82.71;97633.25;7389001;19;20430;-74
2022/09/26 05:12:06;;;;;;;15.27;11.35;;;;;;;9.85;82.69;97622.56;7390116;19;20011;-74
2022/09/26 05:14:35;;;;;;;14.90;9.85;;;;;;;9.81;82.68;97624.69;7387164;19;20014;-74
2022/09/26 05:17:03;;;;;;;13.98;9.63;;;;;;;9.76;82.77;97627.03;7389025;19;20490;-74
2022/09/26 05:19:31;;;;;;;13.27;9.68;;;;;;;9.79;82.63;97633.78;7385374;19;20078;-74
2022/09/26 05:22:17;;;;;;;14.35;9.93;;;;;;;9.78;82.46;97632.97;7384028;19;20011;-74
2022/09/26 05:27:30;;;;;;;14.32;10.00;;;;;;;9.71;83.07;97639.09;7380807;19;20029;-74
2022/09/26 05:29:57;;;;;;;14.75;9.93;;;;;;;9.71;83.13;97636.44;7380353;19;20026;-74
2022/09/26 05:32:27;;;;;;;14.13;10.48;;;;;;;9.75;83.15;97640.41;7381496;19;20018;-74
2022/09/26 05:34:55;;;;;;;17.52;11.88;;;;;;;9.86;83.78;97634.78;7380211;19;20022;-74
2022/09/26 05:37:22;;;;;;;20.75;12.40;;;;;;;9.94;83.66;97626.81;7378644;19;20446;-74
2022/09/26 05:42:39;;;;;;;18.45;11.38;;;;;;;10.09;83.70;97621.66;7386243;19;20018;-74
2022/09/26 05:45:07;;;;;;;17.38;11.18;;;;;;;10.08;83.91;97627.91;7385280;19;22116;-74
2022/09/26 05:47:35;;;;;;;23.27;12.65;;;;;;;10.22;84.10;97629.06;7383332;19;20018;-74
2022/09/26 05:50:08;;;;;;;19.88;13.20;;;;;;;10.37;84.34;97622.03;7385568;19;20042;-74
2022/09/26 05:52:37;;;;;;;22.50;13.77;;;;;;;10.49;84.54;97625.13;7385726;19;20010;-74
2022/09/26 05:55:06;;;;;;;20.65;13.98;;;;;;;10.58;84.42;97618.78;7381033;19;20015;-74
2022/09/26 05:58:03;;;;;;;19.70;13.35;;;;;;;10.62;84.32;97620.09;7387055;19;20370;-74
2022/09/26 06:00:52;;;;;;;20.35;14.05;;;;;;;10.68;84.42;97619.41;7385735;19;20364;-74
2022/09/26 06:03:19;;;;;;;20.08;13.40;;;;;;;10.76;84.69;97615.88;7383280;19;21036;-74
2022/09/26 06:06:12;;;;;;;22.08;12.93;;;;;;;10.88;84.39;97617.13;7386444;19;20025;-74
2022/09/26 06:08:40;;;;;;;20.20;13.30;;;;;;;11.02;84.30;97609.44;7384758;19;20035;-74
2022/09/26 06:11:21;;;;;;;24.63;14.38;;;;;;;11.15;84.28;97615.75;7380265;19;21839;-74
2022/09/26 06:13:48;;;;;;;20.42;12.65;;;;;;;11.26;84.13;97611.88;7385248;19;20901;-74
2022/09/26 06:16:18;;;;;;;18.63;13.32;;;;;;;11.28;83.71;97603.75;7385635;19;20073;-74
2022/09/26 06:18:49;;;;;;;20.33;12.77;;;;;;;11.41;83.65;97604.78;7383657;19;20017;-74
2022/09/26 06:21:18;;;;;;;17.17;12.27;;;;;;;11.42;82.79;97600.31;7383801;19;20385;-74
2022/09/26 06:23:48;;;;;;;18.33;12.38;;;;;;;11.54;82.61;97606.00;7384413;19;20014;-77
2022/09/26 06:26:25;;;;;;;19.30;12.27;;;;;;;11.54;82.14;97608.66;7382542;19;20014;-77
2022/09/26 06:28:58;;;;;;;19.77;12.13;;;;;;;11.55;81.94;97599.69;7381602;19;20070;-77
2022/09/26 06:31:28;;;;;;;17.23;12.60;;;;;;;11.64;81.88;97609.22;7385772;19;20014;-77
2022/09/26 06:34:11;;;;;;;;;;;;;;;11.83;81.54;97594.59;7388266;19;20503;-77
2022/09/26 06:36:50;;;;;;;14.60;10.65;;;;;;;11.93;81.35;97591.69;7385147;19;19919;-77
2022/09/26 06:39:17;;;;;;;19.73;12.10;;;;;;;11.91;80.91;97593.72;7384793;19;20021;-77
2022/09/26 06:41:45;;;;;;;21.15;12.02;;;;;;;11.89;80.84;97595.72;7386192;19;20039;-77
2022/09/26 06:44:34;;;;;;;20.60;12.10;;;;;;;11.85;80.68;97582.81;7379890;19;20010;-77
2022/09/26 06:47:28;;;;;;;15.27;11.68;;;;;;;11.86;80.76;97594.25;7384841;19;20480;-77
2022/09/26 06:50:21;;;;;;;13.30;10.82;;;;;;;11.92;80.85;97590.88;7385880;19;20021;-77
2022/09/26 06:52:52;;;;;;;16.02;10.63;;;;;;;11.86;80.85;97587.13;7383314;19;20018;-76
2022/09/26 06:55:18;;;;;;;16.20;10.68;;;;;;;12.00;80.83;97579.34;7385372;19;20030;-76
2022/09/26 06:57:45;;;;;;;12.55;10.35;;;;;;;12.21;80.82;97573.28;7384024;19;20007;-76
2022/09/26 07:00:14;;;;;;;16.17;10.18;;;;;;;12.41;80.01;97579.66;7380190;19;20042;-76
2022/09/26 07:03:00;;;;;;;18.15;10.98;;;;;;;12.60;79.27;97578.22;7380987;19;20021;-76
2022/09/26 07:05:55;;;;;;;11.23;9.38;;;;;;;12.83;78.50;97577.25;7384783;19;20017;-76
2022/09/26 07:08:22;;;;;;;13.07;9.57;;;;;;;12.89;77.95;97568.50;7384653;19;20026;-76
2022/09/26 07:11:10;;;;;;;10.90;8.77;;;;;;;13.02;77.43;97578.44;7382598;19;20023;-76
2022/09/26 07:14:00;;;;;;;14.52;9.95;;;;;;;13.11;75.90;97577.28;7384764;19;20086;-76
2022/09/26 07:16:28;;;;;;;17.67;10.20;;;;;;;13.09;76.21;97581.97;7379725;19;20683;-76
2022/09/26 07:19:15;;;;;;;9.85;8.07;;;;;;;13.25;75.87;97575.56;7379759;19;21805;-76
2022/09/26 07:21:54;;;;;;;9.68;7.85;;;;;;;13.39;75.65;97586.13;7386727;19;20098;-76
2022/09/26 07:24:33;;;;;;;10.07;6.93;;;;;;;13.41;74.12;97575.31;7384182;19;20026;-76
2022/09/26 07:27:00;;;;;;;11.35;6.55;;;;;;;13.47;73.63;97579.84;7380802;19;20052;-76
2022/09/26 07:29:28;;;;;;;8.13;6.55;;;;;;;13.59;72.86;97575.66;7383398;19;20049;-76
2022/09/26 07:31:54;;;;;;;7.55;6.13;;;;;;;13.76;72.80;97570.03;7383170;19;20023;-76
2022/09/26 07:34:41;;;;;;;7.63;5.57;;;;;;;13.85;70.94;97566.19;7379744;19;20041;-76
2022/09/26 07:37:10;;;;;;;9.68;5.60;;;;;;;13.67;72.62;97565.88;7381410;19;20047;-77
2022/09/26 07:39:37;;;;;;;9.35;5.30;;;;;;;13.60;72.85;97564.00;7382485;19;20014;-77
2022/09/26 07:42:04;;;;;;;6.68;5.75;;;;;;;13.79;73.83;97556.34;7382816;19;20010;-77
2022/09/26 07:44:31;;;;;;;11.00;5.15;;;;;;;13.86;73.14;97554.53;7383571;19;20501;-77
2022/09/26 07:50:10;;;;;;;5.60;4.57;;;;;;;13.94;71.40;97559.69;7377365;19;20527;-77
2022/09/26 07:52:55;;;;;;;5.43;4.35;;;;;;;14.27;71.10;97559.03;7383598;19;20021;-77
2022/09/26 07:55:26;;;;;;;9.55;4.70;;;;;;;14.44;71.37;97559.47;7384020;19;20034;-77
2022/09/26 07:58:12;;;;;;;6.07;4.85;;;;;;;14.59;70.39;97557.50;7382083;19;20034;-77
2022/09/26 08:00:57;;;;;;;8.05;4.35;;;;;;;14.83;69.34;97552.63;7384786;19;20021;-77
2022/09/26 08:04:00;;;;;;;4.53;3.75;;;;;;;14.92;68.50;97543.41;7380644;19;20022;-77
2022/09/26 08:06:35;;;;;;;8.70;3.92;;;;;;;14.91;67.33;97547.94;7385555;19;20018;-76
2022/09/26 08:09:02;;;;;;;5.20;3.55;;;;;;;14.93;67.73;97545.91;7386347;19;20019;-77
2022/09/26 08:11:47;;;;;;;5.43;3.83;;;;;;;15.00;68.04;97539.75;7390055;19;20044;-77
2022/09/26 08:14:31;;;;;;;9.10;3.85;;;;;;;14.92;68.68;97536.25;7389183;19;20026;-77
2022/09/26 08:17:11;;;;;;;6.80;3.67;;;;;;;14.87;67.86;97533.38;7390092;19;20022;-76
2022/09/26 08:19:39;;;;;;;4.43;3.45;;;;;;;14.99;67.91;97530.13;7388069;19;20014;-77
2022/09/26 08:22:07;;;;;;;7.57;4.05;;;;;;;14.89;67.60;97533.19;7388930;19;20011;-77
2022/09/26 08:24:34;;;;;;;5.55;4.15;;;;;;;14.97;68.42;97532.16;7378061;19;20014;-77
2022/09/26 08:27:21;;;;;;;8.98;4.50;;;;;;;15.23;67.76;97531.34;7386493;19;20021;-77
2022/09/26 08:29:49;;;;;;;3.95;3.42;;;;;;;15.52;65.27;97517.56;7385205;19;20032;-77
2022/09/26 08:32:18;;;;;;;4.75;3.30;;;;;;;15.48;66.76;97524.34;7389893;19;20096;-77
2022/09/26 08:34:45;;;;;;;3.53;3.05;;;;;;;15.44;65.86;97522.31;7386495;19;20023;-77
2022/09/26 08:37:35;;;;;;;7.18;3.55;;;;;;;15.61;66.06;97522.66;7385951;19;20010;-77
2022/09/26 08:40:25;;;;;;;5.60;3.00;;;;;;;15.36;64.89;97529.47;7383926;19;20013;-77
2022/09/26 08:43:55;;;;;;;7.80;3.30;;;;;;;15.63;65.60;97521.44;7386547;19;20122;-77
2022/09/26 08:46:50;;;;;;;6.95;3.03;;;;;;;15.57;66.20;97509.75;7389795;19;20019;-77
2022/09/26 08:49:58;;;;;;;7.72;3.38;;;;;;;15.83;65.89;97508.09;7387870;19;20045;-77
2022/09/26 08:52:34;;;;;;;3.45;2.42;;;;;;;15.85;65.05;97508.69;7389310;19;20018;-77
2022/09/26 08:55:26;;;;;;;7.82;3.25;;;;;;;15.69;66.17;97509.97;7389191;19;20010;-77
2022/09/26 08:58:04;;;;;;;5.05;2.55;;;;;;;15.29;64.50;97511.84;7379997;19;20033;-77
2022/09/26 09:00:32;;;;;;;3.75;2.30;;;;;;;15.41;63.44;97506.72;7381953;19;20027;-77
2022/09/26 09:03:22;;;;;;;8.20;2.65;;;;;;;15.39;65.01;97503.44;7384226;19;20006;-77
2022/09/26 09:05:51;;;;;;;7.93;3.03;;;;;;;15.50;64.62;97500.94;7385441;19;20616;-77
2022/09/26 09:08:22;;;;;;;7.40;2.92;;;;;;;15.64;63.36;97504.44;7386456;19;20038;-77
2022/09/26 09:11:25;;;;;;;4.82;3.15;;;;;;;15.93;63.28;97503.13;7383701;19;20383;-77
2022/09/26 09:14:28;;;;;;;6.95;2.58;;;;;;;15.97;63.56;97496.31;7384378;19;20380;-77
2022/09/26 09:17:19;;;;;;;9.43;2.47;;;;;;;15.81;63.93;97502.13;7386208;19;20340;-76
2022/09/26 09:20:15;;;;;;;6.63;2.72;;;;;;;15.81;64.19;97494.13;7388341;19;20018;-77
2022/09/26 09:23:23;;;;;;;4.47;2.60;;;;;;;15.56;65.55;97494.81;7387009;19;20345;-76
2022/09/26 09:25:59;;;;;;;5.20;3.88;;;;;;;15.55;64.90;97495.81;7386841;19;20038;-77
2022/09/26 09:28:52;;;;;;;5.82;3.22;;;;;;;15.37;65.31;97488.47;7384134;19;20052;-77
2022/09/26 09:31:19;;;;;;;4.93;2.80;;;;;;;15.45;65.65;97478.63;7382674;19;20062;-77
2022/09/26 09:34:25;;;;;;;7.53;3.22;;;;;;;15.41;64.76;97485.41;7387820;19;20485;-77
2022/09/26 09:37:22;;;;;;;5.00;2.83;;;;;;;15.17;63.69;97485.03;7384927;19;20014;-76
2022/09/26 09:40:26;;;;;;;8.20;2.60;;;;;;;15.31;64.46;97475.97;7384335;19;20011;-77
2022/09/26 09:43:04;;;;;;;4.65;2.33;;;;;;;15.41;64.16;97470.22;7384874;19;20017;-77
2022/09/26 09:45:45;;;;;;;5.15;2.72;;;;;;;15.46;64.09;97474.94;7386374;19;20014;-77
2022/09/26 09:48:12;;;;;;;7.00;2.90;;;;;;;15.49;63.98;97470.00;7381158;19;20021;-77
2022/09/26 09:50:41;;;;;;;5.20;2.00;;;;;;;15.39;59.89;97466.13;7381239;19;20042;-77
2022/09/26 09:53:35;;;;;;;4.25;2.15;;;;;;;15.61;62.79;97461.34;7387781;19;20463;-76
2022/09/26 09:56:35;;;;;;;7.68;2.00;;;;;;;15.74;63.08;97464.81;7386932;19;20037;-76
2022/09/26 09:59:40;;;;;;;5.75;2.33;;;;;;;16.00;61.25;97450.53;7384715;19;20056;-75
2022/09/26 10:02:18;;;;;;;4.47;2.42;;;;;;;16.40;61.27;97446.84;7387364;19;20010;-76
2022/09/26 10:04:51;;;;;;;4.95;2.00;;;;;;;16.45;59.02;97444.34;7375409;19;20018;-75
2022/09/26 10:07:18;;;;;;;4.05;2.10;;;;;;;16.43;59.17;97443.75;7382622;19;20020;-75
2022/09/26 10:10:12;;;;;;;4.68;2.17;;;;;;;16.18;58.86;97438.34;7386703;19;20021;-75
2022/09/26 10:12:57;;;;;;;3.38;1.70;;;;;;;16.44;58.11;97442.72;7384438;19;20031;-75
2022/09/26 10:16:00;;;;;;;4.18;1.83;;;;;;;16.67;58.55;97432.28;7390220;19;20030;-75
2022/09/26 10:19:02;;;;;;;4.13;1.65;;;;;;;16.95;59.53;97423.00;7383255;19;20035;-75
2022/09/26 10:21:33;;;;;;;4.43;1.98;;;;;;;16.58;58.35;97432.75;7380893;19;20086;-75
2022/09/26 10:24:03;;;;;;;3.88;2.30;;;;;;;16.50;59.46;97425.81;7386112;19;20011;-75
2022/09/26 10:26:48;;;;;;;2.50;1.98;;;;;;;16.31;60.55;97419.59;7383881;19;20010;-75
2022/09/26 10:29:33;;;;;;;2.75;2.30;;;;;;;15.96;61.37;97416.53;7383254;19;20110;-75
2022/09/26 10:32:01;;;;;;;2.10;1.92;;;;;;;15.80;60.47;97415.97;7385772;19;20018;-76
2022/09/26 10:34:30;;;;;;;3.33;2.42;;;;;;;15.67;61.25;97415.19;7384995;19;20094;-75
2022/09/26 10:37:19;;;;;;;5.13;1.73;;;;;;;15.53;59.92;97409.91;7379373;19;20098;-75
2022/09/26 10:42:45;;;;;;;2.70;1.67;;;;;;;15.82;59.34;97406.94;7384811;19;20039;-75
2022/09/26 10:45:16;;;;;;;2.95;1.50;;;;;;;16.21;58.16;97398.72;7385047;19;20025;-75
2022/09/26 10:48:06;;;;;;;3.85;1.88;;;;;;;16.72;57.96;97398.72;7384663;19;20536;-75
2022/09/26 10:51:00;;;;;;;;;;;;;;;17.28;56.54;97393.28;7381798;19;20138;-76
2022/09/26 10:53:37;;;;;;;4.97;1.55;;;;;;;17.49;55.53;97392.03;7381621;19;19933;-75
2022/09/26 10:56:10;;;;;;;2.53;1.33;;;;;;;17.40;55.35;97381.84;7383755;19;20013;-75
2022/09/26 10:58:41;;;;;;;3.00;1.45;;;;;;;17.21;55.16;97381.03;7384079;19;20043;-75
2022/09/26 11:01:19;;;;;;;3.55;1.80;;;;;;;17.19;55.01;97381.25;7384156;19;20010;-75
2022/09/26 11:03:48;;;;;;;1.95;1.60;;;;;;;17.09;56.73;97375.63;7385087;19;20032;-75
2022/09/26 11:06:39;;;;;;;3.72;1.20;;;;;;;16.82;53.96;97370.50;7385882;19;20026;-75
2022/09/26 11:09:29;;;;;;;6.95;1.15;;;;;;;16.64;56.11;97370.44;7381353;19;20048;-76
2022/09/26 11:11:56;;;;;;;2.20;1.20;;;;;;;16.52;54.26;97361.53;7383031;19;20025;-76
2022/09/26 11:14:30;;;;;;;2.20;1.30;;;;;;;16.66;56.58;97350.50;7383244;19;20489;-75
2022/09/26 11:17:02;;;;;;;2.80;1.38;;;;;;;16.71;54.40;97357.88;7383202;19;20026;-76
2022/09/26 11:19:34;;;;;;;1.85;0.93;;;;;;;16.45;54.18;97359.72;7382089;19;20066;-76
2022/09/26 11:22:06;;;;;;;3.40;1.17;;;;;;;16.53;52.82;97355.16;7383624;19;20015;-75
2022/09/26 11:24:53;;;;;;;2.30;1.35;;;;;;;16.61;54.69;97355.72;7380877;19;20014;-76
2022/09/26 11:27:42;;;;;;;4.80;1.73;;;;;;;16.49;56.41;97346.78;7376612;19;20482;-76
2022/09/26 11:30:13;;;;;;;1.60;0.95;;;;;;;16.34;53.29;97325.72;7379452;19;20414;-76
2022/09/26 11:32:54;;;;;;;2.00;0.80;;;;;;;16.95;48.28;97326.03;7383574;19;20026;-75
2022/09/26 11:36:09;;;;;;;4.72;1.25;;;;;;;17.06;51.34;97325.28;7380983;19;20038;-76
2022/09/26 11:38:49;;;;;;;3.03;1.25;;;;;;;16.89;50.60;97328.53;7384172;19;20018;-76
2022/09/26 11:41:42;;;;;;;2.25;1.10;;;;;;;16.65;51.14;97310.69;7389457;19;20022;-75
2022/09/26 11:44:46;;;;;;;2.42;0.98;;;;;;;16.81;52.75;97312.00;7384213;19;20048;-75
2022/09/26 11:47:43;;;;;;;2.40;0.90;;;;;;;16.86;50.89;97314.81;7388660;19;20011;-75
2022/09/26 11:50:25;;;;;;;4.40;1.10;;;;;;;16.67;51.10;97312.09;7389248;19;20017;-74
2022/09/26 11:53:59;;;;;;;3.92;0.95;;;;;;;16.79;53.28;97298.84;7389434;19;20017;-75
2022/09/26 11:56:41;;;;;;;2.88;1.23;;;;;;;16.97;50.38;97299.91;7391924;19;20025;-76
2022/09/26 11:59:20;;;;;;;3.05;1.05;;;;;;;16.76;52.47;97293.09;7386447;19;20046;-75
2022/09/26 12:02:17;;;;;;;2.75;1.20;;;;;;;16.63;52.98;97294.88;7386988;19;21932;-75
2022/09/26 12:05:12;;;;;;;1.75;0.70;;;;;;;16.79;54.50;97282.00;7385339;19;20035;-75
2022/09/26 12:07:55;;;;;;;2.72;1.20;;;;;;;16.82;51.32;97281.56;7388520;19;20023;-75
2022/09/26 12:10:43;;;;;;;3.50;1.05;;;;;;;16.38;55.43;97291.44;7385879;19;20034;-75
2022/09/26 12:13:53;;;;;;;5.57;1.35;;;;;;;15.93;55.89;97303.06;7387057;19;20028;-75
2022/09/26 12:16:36;;;;;;;11.38;2.35;;;;;;;14.66;65.92;97331.25;7384197;19;20037;-76
2022/09/26 12:19:21;;;;;;;10.55;2.65;;;;;;;13.51;73.16;97326.03;7386000;19;20018;-75
2022/09/26 12:25:13;;;;;;;3.05;1.70;;;;;;;12.35;75.63;97332.91;7389374;19;20015;-76
2022/09/26 12:28:01;;;;;;;4.47;1.42;;;;;;;12.58;79.19;97317.56;7388970;19;20050;-76